createdAt,value
2018-06-02T00:02:31.102Z,100487.69
2018-06-02T00:07:36.154Z,100489.78
2018-06-02T00:12:47.479Z,100481.39
2018-06-02T00:17:52.921Z,100486.45
2018-06-02T00:23:01.531Z,100482.62
2018-06-02T00:28:06.731Z,100477.67
2018-06-02T00:33:13.254Z,100471.66
2018-06-02T00:38:18.454Z,100469.13
2018-06-02T00:43:23.643Z,100462.41
2018-06-02T00:48:29.002Z,100454.92
2018-06-02T00:53:37.749Z,100446.75
2018-06-02T00:58:43.192Z,100441.70
2018-06-02T01:03:58.562Z,100433.32
2018-06-02T01:09:03.390Z,100434.05
2018-06-02T01:14:12.169Z,100439.58
2018-06-02T01:19:17.621Z,100438.19
2018-06-02T01:24:38.736Z,100436.58
2018-06-02T01:29:44.040Z,100431.03
2018-06-02T01:34:55.433Z,100434.91
2018-06-02T01:40:00.860Z,100438.48
2018-06-02T01:45:09.738Z,100438.89
2018-06-02T01:50:15.054Z,100444.19
2018-06-02T01:55:23.973Z,100434.32
2018-06-02T02:00:29.329Z,100436.70
2018-06-02T02:05:38.021Z,100442.90
2018-06-02T02:10:43.307Z,100447.47
2018-06-02T02:15:52.117Z,100439.16
2018-06-02T02:20:57.677Z,100436.96
2018-06-02T02:26:04.275Z,100442.11
2018-06-02T02:31:09.644Z,100445.88
2018-06-02T02:36:22.027Z,100468.58
2018-06-02T02:41:27.402Z,100468.66
2018-06-02T02:46:38.444Z,100464.28
2018-06-02T02:51:44.045Z,100472.13
2018-06-02T02:56:49.408Z,100477.61
2018-06-02T03:01:57.828Z,100476.34
2018-06-02T03:07:03.295Z,100473.38
2018-06-02T03:12:09.879Z,100474.77
2018-06-02T03:17:15.150Z,100473.72
2018-06-02T03:22:23.591Z,100479.61
2018-06-02T03:27:28.748Z,100489.28
2018-06-02T03:32:39.204Z,100490.64
2018-06-02T03:37:44.431Z,100490.81
2018-06-02T03:42:50.021Z,100500.69
2018-06-02T03:47:55.400Z,100507.09
2018-06-02T03:53:07.795Z,100496.39
2018-06-02T03:58:13.257Z,100487.61
2018-06-02T04:03:21.747Z,100510.79
2018-06-02T04:08:27.184Z,100517.52
2018-06-02T04:13:37.792Z,100517.41
2018-06-02T04:18:43.184Z,100525.72
2018-06-02T04:24:00.741Z,100524.81
2018-06-02T04:29:06.050Z,100522.65
2018-06-02T04:34:11.412Z,100528.12
2018-06-02T04:39:16.897Z,100521.65
2018-06-02T04:44:23.179Z,100510.31
2018-06-02T04:49:28.744Z,100517.80
2018-06-02T04:54:35.341Z,100512.31
2018-06-02T04:59:40.798Z,100509.28
2018-06-02T05:04:49.673Z,100520.52
2018-06-02T05:09:55.011Z,100528.89
2018-06-02T05:15:03.674Z,100520.84
2018-06-02T05:20:08.622Z,100524.38
2018-06-02T05:25:14.784Z,100528.02
2018-06-02T05:30:20.124Z,100525.58
2018-06-02T05:35:26.484Z,100542.32
2018-06-02T05:40:32.018Z,100538.90
2018-06-02T05:45:40.359Z,100543.71
2018-06-02T05:50:45.802Z,100543.95
2018-06-02T05:55:54.415Z,100551.74
2018-06-02T06:00:59.810Z,100538.77
2018-06-02T06:06:12.767Z,100531.64
2018-06-02T06:11:18.552Z,100530.73
2018-06-02T06:16:23.873Z,100530.02
2018-06-02T06:21:40.858Z,100526.14
2018-06-02T06:26:46.239Z,100522.30
2018-06-02T06:31:52.796Z,100521.09
2018-06-02T06:36:58.346Z,100522.36
2018-06-02T06:42:04.615Z,100517.20
2018-06-02T06:47:10.583Z,100526.39
2018-06-02T06:52:15.907Z,100533.59
2018-06-02T06:57:21.355Z,100528.81
2018-06-02T07:02:29.717Z,100530.68
2018-06-02T07:07:36.718Z,100520.73
2018-06-02T07:12:42.436Z,100530.02
2018-06-02T07:17:48.626Z,100526.39
2018-06-02T07:22:54.093Z,100530.95
2018-06-02T07:27:59.478Z,100525.72
2018-06-02T07:33:04.951Z,100538.95
2018-06-02T07:38:10.345Z,100545.37
2018-06-02T07:43:15.578Z,100543.99
2018-06-02T07:48:21.054Z,100546.99
2018-06-02T07:53:26.593Z,100533.56
2018-06-02T07:58:31.822Z,100530.70
2018-06-02T08:03:38.017Z,100526.30
2018-06-02T08:08:43.317Z,100536.69
2018-06-02T08:13:49.767Z,100533.91
2018-06-02T08:18:55.202Z,100549.47
2018-06-02T08:24:01.459Z,100542.08
2018-06-02T08:29:06.868Z,100539.03
2018-06-02T08:34:12.679Z,100544.11
2018-06-02T08:39:19.019Z,100540.06
2018-06-02T08:44:27.627Z,100545.37
2018-06-02T08:49:33.062Z,100548.06
2018-06-02T08:54:42.031Z,100540.98
2018-06-02T08:59:47.349Z,100545.63
2018-06-02T09:04:53.897Z,100543.59
2018-06-02T09:09:59.327Z,100545.72
2018-06-02T09:15:07.874Z,100547.38
2018-06-02T09:20:13.296Z,100546.94
2018-06-02T09:25:29.164Z,100542.86
2018-06-02T09:30:35.137Z,100539.34
2018-06-02T09:35:43.982Z,100542.58
2018-06-02T09:40:53.281Z,100545.31
2018-06-02T09:45:58.846Z,100552.19
2018-06-02T09:51:07.450Z,100542.95
2018-06-02T09:56:12.830Z,100547.17
2018-06-02T10:01:18.504Z,100542.48
2018-06-02T10:06:23.906Z,100536.80
2018-06-02T10:11:34.693Z,100536.95
2018-06-02T10:16:40.120Z,100537.90
2018-06-02T10:21:55.629Z,100544.30
2018-06-02T10:27:01.082Z,100539.85
2018-06-02T10:32:09.415Z,100538.56
2018-06-02T10:37:14.834Z,100544.97
2018-06-02T10:42:20.483Z,100544.02
2018-06-02T10:47:25.769Z,100524.17
2018-06-02T10:52:30.936Z,100526.66
2018-06-02T10:57:36.228Z,100510.47
2018-06-02T11:02:41.781Z,100512.80
2018-06-02T11:07:47.405Z,100515.44
2018-06-02T11:12:52.406Z,100503.34
2018-06-02T11:17:58.742Z,100506.91
2018-06-02T11:23:03.987Z,100506.01
2018-06-02T11:28:10.465Z,100496.53
2018-06-02T11:33:20.056Z,100507.72
2018-06-02T11:38:28.174Z,100494.94
2018-06-02T11:43:37.198Z,100491.84
2018-06-02T11:48:43.571Z,100485.48
2018-06-02T11:53:48.810Z,100482.27
2018-06-02T11:58:54.367Z,100482.84
2018-06-02T12:03:59.984Z,100474.11
2018-06-02T12:09:05.198Z,100466.16
2018-06-02T12:14:11.603Z,100466.30
2018-06-02T12:19:17.151Z,100471.78
2018-06-02T12:24:23.459Z,100465.57
2018-06-02T12:29:29.076Z,100457.19
2018-06-02T12:34:38.042Z,100463.16
2018-06-02T12:39:43.521Z,100460.95
2018-06-02T12:44:53.010Z,100440.98
2018-06-02T12:49:59.496Z,100445.33
2018-06-02T12:55:09.412Z,100442.62
2018-06-02T13:00:18.512Z,100439.12
2018-06-02T13:05:24.044Z,100432.63
2018-06-02T13:10:30.206Z,100430.49
2018-06-02T13:15:36.268Z,100433.42
2018-06-02T13:20:41.805Z,100436.86
2018-06-02T13:25:47.147Z,100429.23
2018-06-02T13:30:53.235Z,100439.72
2018-06-02T13:35:59.211Z,100436.78
2018-06-02T13:41:04.596Z,100437.06
2018-06-02T13:46:11.060Z,100428.85
2018-06-02T13:51:22.860Z,100425.54
2018-06-02T13:56:28.379Z,100423.80
2018-06-02T14:01:34.342Z,100420.69
2018-06-02T14:06:40.279Z,100426.92
2018-06-02T14:11:45.642Z,100419.02
2018-06-02T14:16:55.135Z,100414.38
2018-06-02T14:22:01.315Z,100408.53
2018-06-02T14:27:07.554Z,100409.89
2018-06-02T14:32:13.592Z,100412.91
2018-06-02T14:37:19.668Z,100402.00
2018-06-02T14:42:25.211Z,100396.83
2018-06-02T14:47:38.791Z,100398.66
2018-06-02T14:52:44.821Z,100405.77
2018-06-02T14:57:50.831Z,100407.07
2018-06-02T15:02:56.438Z,100403.56
2018-06-02T15:08:03.826Z,100398.25
2018-06-02T15:13:10.593Z,100399.88
2018-06-02T15:18:19.998Z,100395.17
2018-06-02T15:23:26.043Z,100390.16
2018-06-02T15:28:32.089Z,100379.30
2018-06-02T15:33:40.023Z,100381.22
2018-06-02T15:38:54.491Z,100375.92
2018-06-02T15:44:06.427Z,100371.31
2018-06-02T15:49:15.027Z,100359.50
2018-06-02T15:54:28.579Z,100359.83
2018-06-02T15:59:38.737Z,100352.60
2018-06-02T16:04:46.571Z,100352.91
2018-06-02T16:09:57.080Z,100351.50
2018-06-02T16:15:03.517Z,100347.44
2018-06-02T16:20:15.994Z,100339.63
2018-06-02T16:25:22.824Z,100342.30
2018-06-02T16:30:29.695Z,100343.66
2018-06-02T16:35:35.379Z,100337.98
2018-06-02T16:40:41.459Z,100320.27
2018-06-02T16:45:51.876Z,100324.95
2018-06-02T16:50:58.864Z,100322.39
2018-06-02T16:56:05.407Z,100323.71
2018-06-02T17:01:11.046Z,100321.92
2018-06-02T17:06:16.981Z,100324.77
2018-06-02T17:11:23.510Z,100347.85
2018-06-02T17:16:29.219Z,100348.61
2018-06-02T17:21:36.411Z,100343.51
2018-06-02T17:26:46.407Z,100340.34
2018-06-02T17:31:51.933Z,100334.54
2018-06-02T17:36:57.603Z,100331.05
2018-06-02T17:42:03.197Z,100326.34
2018-06-02T17:47:09.860Z,100323.69
2018-06-02T17:52:15.340Z,100336.96
2018-06-02T17:57:24.563Z,100345.19
2018-06-02T18:02:30.101Z,100356.27
2018-06-02T18:07:35.624Z,100357.73
2018-06-02T18:12:41.221Z,100352.97
2018-06-02T18:17:46.901Z,100347.77
2018-06-02T18:22:52.486Z,100345.87
2018-06-02T18:28:04.448Z,100358.01
2018-06-02T18:33:09.875Z,100372.63
2018-06-02T18:38:20.956Z,100371.67
2018-06-02T18:43:26.596Z,100374.02
2018-06-02T18:48:32.194Z,100379.97
2018-06-02T18:53:37.760Z,100383.75
2018-06-02T18:58:48.152Z,100383.36
2018-06-02T19:03:53.653Z,100389.98
2018-06-02T19:08:58.821Z,100389.36
2018-06-02T19:14:04.330Z,100384.12
2018-06-02T19:19:10.047Z,100391.14
2018-06-02T19:24:15.656Z,100389.63
2018-06-02T19:29:24.530Z,100405.63
2018-06-02T19:34:29.864Z,100398.27
2018-06-02T19:39:40.852Z,100396.14
2018-06-02T19:44:46.397Z,100393.33
2018-06-02T19:50:01.200Z,100395.55
2018-06-02T19:55:06.668Z,100388.55
2018-06-02T20:00:12.323Z,100395.55
2018-06-02T20:05:17.634Z,100402.20
2018-06-02T20:10:24.107Z,100394.93
2018-06-02T20:15:35.687Z,100394.95
2018-06-02T20:20:51.235Z,100395.64
2018-06-02T20:26:01.934Z,100408.84
2018-06-02T20:31:07.518Z,100405.16
2018-06-02T20:36:13.169Z,100407.27
2018-06-02T20:41:18.687Z,100409.86
2018-06-02T20:46:29.866Z,100414.16
2018-06-02T20:51:35.401Z,100419.45
2018-06-02T20:56:44.901Z,100423.30
2018-06-02T21:01:50.213Z,100433.78
2018-06-02T21:06:55.818Z,100431.17
2018-06-02T21:12:06.381Z,100427.57
2018-06-02T21:17:16.858Z,100425.06
2018-06-02T21:22:22.415Z,100425.69
2018-06-02T21:27:34.037Z,100429.00
2018-06-02T21:32:40.472Z,100418.30
2018-06-02T21:37:46.857Z,100418.33
2018-06-02T21:42:52.280Z,100417.23
2018-06-02T21:48:02.718Z,100404.77
2018-06-02T21:53:08.144Z,100396.91
2018-06-02T21:58:13.622Z,100393.00
2018-06-02T22:03:19.119Z,100387.81
2018-06-02T22:08:38.632Z,100388.03
2018-06-02T22:13:43.272Z,100372.98
2018-06-02T22:18:54.088Z,100388.55
2018-06-02T22:24:01.256Z,100376.48
2018-06-02T22:29:06.914Z,100367.97
2018-06-02T22:34:12.317Z,100367.49
2018-06-02T22:39:22.941Z,100363.80
2018-06-02T22:44:28.475Z,100361.62
2018-06-02T22:49:39.775Z,100355.06
2018-06-02T22:54:46.191Z,100342.82
2018-06-02T22:59:52.847Z,100336.53
2018-06-02T23:04:57.665Z,100329.00
2018-06-02T23:10:02.845Z,100327.39
2018-06-02T23:15:08.229Z,100323.89
2018-06-02T23:20:13.503Z,100310.67
2018-06-02T23:25:20.722Z,100306.13
2018-06-02T23:30:27.028Z,100307.22
2018-06-02T23:35:32.411Z,100296.56
2018-06-02T23:40:37.775Z,100293.91
2018-06-02T23:45:48.403Z,100281.66
2018-06-02T23:50:54.476Z,100278.44
2018-06-02T23:56:03.708Z,100274.05
